createdAt,value
2017-05-06T00:00:02.784Z,0
2017-05-06T00:05:03.202Z,0
2017-05-06T00:10:02.979Z,0
2017-05-06T00:15:02.768Z,0
2017-05-06T00:20:03.553Z,0
2017-05-06T00:25:03.197Z,0
2017-05-06T00:30:02.963Z,0
2017-05-06T00:35:02.734Z,0
2017-05-06T00:40:03.539Z,0
2017-05-06T00:45:03.138Z,0
2017-05-06T00:50:02.798Z,0
2017-05-06T00:55:03.431Z,0
2017-05-06T01:00:03.182Z,0
2017-05-06T01:05:02.776Z,0
2017-05-06T01:10:02.640Z,0
2017-05-06T01:15:03.302Z,0
2017-05-06T01:20:02.957Z,0
2017-05-06T01:25:02.658Z,0
2017-05-06T01:30:03.292Z,0
2017-05-06T01:35:03.063Z,0
2017-05-06T01:40:02.855Z,2
2017-05-06T01:45:08.579Z,2
2017-05-06T01:50:03.266Z,2
2017-05-06T01:55:03.037Z,0
2017-05-06T02:00:02.665Z,0
2017-05-06T02:05:03.308Z,0
2017-05-06T02:10:03.093Z,0
2017-05-06T02:15:02.981Z,0
2017-05-06T02:20:03.587Z,0
2017-05-06T02:25:03.278Z,0
2017-05-06T02:30:02.908Z,0
2017-05-06T02:35:02.641Z,0
2017-05-06T02:40:03.273Z,0
2017-05-06T02:45:03.063Z,0
2017-05-06T02:50:02.810Z,0
2017-05-06T02:55:03.545Z,0
2017-05-06T03:00:03.152Z,0
2017-05-06T03:05:02.813Z,0
2017-05-06T03:10:03.491Z,0
2017-05-06T03:15:03.251Z,0
2017-05-06T03:20:02.883Z,0
2017-05-06T03:25:03.541Z,0
2017-05-06T03:30:03.291Z,0
2017-05-06T03:35:02.879Z,0
2017-05-06T03:40:03.564Z,0
2017-05-06T03:45:03.147Z,0
2017-05-06T03:50:02.755Z,0
2017-05-06T03:55:03.534Z,0
2017-05-06T04:01:06.593Z,0
2017-05-06T04:05:10.197Z,0
2017-05-06T04:10:02.877Z,0
2017-05-06T04:15:02.664Z,0
2017-05-06T04:20:03.603Z,0
2017-05-06T04:25:03.632Z,0
2017-05-06T04:30:03.086Z,0
2017-05-06T04:35:02.723Z,0
2017-05-06T04:40:03.436Z,0
2017-05-06T04:45:03.027Z,0
2017-05-06T04:50:02.812Z,0
2017-05-06T04:55:03.551Z,0
2017-05-06T05:00:03.185Z,0
2017-05-06T05:05:02.955Z,0
2017-05-06T05:10:02.671Z,0
2017-05-06T05:15:03.362Z,0
2017-05-06T05:20:02.926Z,0
2017-05-06T05:25:02.619Z,0
2017-05-06T05:30:03.213Z,0
2017-05-06T05:35:02.859Z,0
2017-05-06T05:40:03.550Z,0
2017-05-06T05:45:03.351Z,0
2017-05-06T05:50:02.933Z,0
2017-05-06T05:55:02.674Z,0
2017-05-06T06:00:03.330Z,0
2017-05-06T06:05:02.966Z,0
2017-05-06T06:10:02.855Z,0
2017-05-06T06:15:03.557Z,0
2017-05-06T06:20:03.173Z,3
2017-05-06T06:25:02.902Z,0
2017-05-06T06:30:03.496Z,0
2017-05-06T06:35:03.221Z,0
2017-05-06T06:40:03.111Z,2
2017-05-06T06:45:03.009Z,2
2017-05-06T06:50:02.764Z,3
2017-05-06T06:55:03.342Z,3
2017-05-06T07:00:03.012Z,3
2017-05-06T07:05:02.670Z,3
2017-05-06T07:10:03.439Z,6
2017-05-06T07:15:03.163Z,2
2017-05-06T07:20:02.955Z,2
2017-05-06T07:25:02.784Z,3
2017-05-06T07:30:03.490Z,4
2017-05-06T07:35:03.172Z,2
2017-05-06T07:40:02.783Z,6
2017-05-06T07:45:03.465Z,7
2017-05-06T07:50:03.079Z,4
2017-05-06T07:55:02.824Z,5
2017-05-06T08:00:03.396Z,0
2017-05-06T08:05:03.130Z,4
2017-05-06T08:10:02.992Z,4
2017-05-06T08:15:02.636Z,2
2017-05-06T08:20:03.333Z,3
2017-05-06T08:25:03.093Z,3
2017-05-06T08:30:02.725Z,2
2017-05-06T08:35:03.525Z,6
2017-05-06T08:40:03.229Z,0
2017-05-06T08:45:02.841Z,3
2017-05-06T08:50:03.508Z,2
2017-05-06T08:55:03.142Z,1
2017-05-06T09:00:02.886Z,3
2017-05-06T09:05:02.664Z,3
2017-05-06T09:10:03.538Z,3
2017-05-06T09:15:03.258Z,2
2017-05-06T09:20:02.831Z,0
2017-05-06T09:25:02.683Z,0
2017-05-06T09:30:03.170Z,2
2017-05-06T09:35:02.865Z,2
2017-05-06T09:40:02.662Z,2
2017-05-06T09:45:03.414Z,3
2017-05-06T09:50:03.167Z,0
2017-05-06T09:55:02.921Z,3
2017-05-06T10:00:03.248Z,3
2017-05-06T10:05:03.046Z,2
2017-05-06T10:10:03.245Z,5
2017-05-06T10:15:03.438Z,4
2017-05-06T10:20:02.667Z,0
2017-05-06T10:25:02.918Z,0
2017-05-06T10:30:02.731Z,5
2017-05-06T10:35:03.464Z,3
2017-05-06T10:40:03.332Z,1
2017-05-06T10:45:02.866Z,2
2017-05-06T10:50:03.328Z,3
2017-05-06T10:55:03.019Z,1
2017-05-06T11:00:03.202Z,4
2017-05-06T11:05:02.737Z,3
2017-05-06T11:10:03.158Z,4
2017-05-06T11:15:03.139Z,6
2017-05-06T11:20:02.953Z,3
2017-05-06T11:25:03.419Z,3
2017-05-06T11:30:02.941Z,3
2017-05-06T11:35:03.103Z,5
2017-05-06T11:40:02.840Z,4
2017-05-06T11:45:03.352Z,3
2017-05-06T11:50:02.980Z,4
2017-05-06T11:55:03.204Z,5
2017-05-06T12:00:02.805Z,3
2017-05-06T12:05:03.252Z,4
2017-05-06T12:10:02.809Z,8
2017-05-06T12:15:03.221Z,3
2017-05-06T12:20:03.555Z,6
2017-05-06T12:25:02.681Z,4
2017-05-06T12:30:03.238Z,3
2017-05-06T12:35:03.440Z,5
2017-05-06T12:40:03.225Z,3
2017-05-06T12:45:03.501Z,5
2017-05-06T12:50:03.528Z,3
2017-05-06T12:55:03.310Z,3
2017-05-06T13:00:02.933Z,3
2017-05-06T13:05:02.976Z,4
2017-05-06T13:10:03.284Z,3
2017-05-06T13:15:02.895Z,3
2017-05-06T13:20:03.174Z,3
2017-05-06T13:25:03.515Z,3
2017-05-06T13:30:03.126Z,7
2017-05-06T13:35:03.402Z,5
2017-05-06T13:40:03.034Z,2
2017-05-06T13:45:03.121Z,6
2017-05-06T13:50:02.626Z,2
2017-05-06T13:55:02.709Z,5
2017-05-06T14:00:03.273Z,3
2017-05-06T14:05:03.549Z,2
2017-05-06T14:10:03.387Z,7
2017-05-06T14:15:02.850Z,4
2017-05-06T14:20:03.709Z,4
2017-05-06T14:25:03.259Z,5
2017-05-06T14:30:02.863Z,3
2017-05-06T14:35:03.068Z,4
2017-05-06T14:40:02.733Z,8
2017-05-06T14:45:03.211Z,4
2017-05-06T14:50:02.666Z,7
2017-05-06T14:55:02.958Z,6
2017-05-06T15:00:03.507Z,4
2017-05-06T15:05:02.856Z,6
2017-05-06T15:10:03.245Z,3
2017-05-06T15:15:02.686Z,3
2017-05-06T15:20:03.084Z,7
2017-05-06T15:25:03.366Z,5
2017-05-06T15:30:03.030Z,5
2017-05-06T15:35:03.354Z,5
2017-05-06T15:40:02.995Z,8
2017-05-06T15:45:02.682Z,3
2017-05-06T15:50:03.137Z,5
2017-05-06T15:55:03.354Z,3
2017-05-06T16:00:02.787Z,5
2017-05-06T16:05:03.017Z,7
2017-05-06T16:10:03.482Z,5
2017-05-06T16:15:03.189Z,7
2017-05-06T16:20:02.917Z,8
2017-05-06T16:25:02.974Z,5
2017-05-06T16:30:03.547Z,5
2017-05-06T16:35:03.074Z,4
2017-05-06T16:40:02.567Z,3
2017-05-06T16:45:03.102Z,4
2017-05-06T16:50:02.848Z,2
2017-05-06T16:55:03.176Z,5
2017-05-06T17:00:03.339Z,4
2017-05-06T17:05:03.456Z,5
2017-05-06T17:10:03.028Z,3
2017-05-06T17:15:02.833Z,3
2017-05-06T17:20:03.275Z,2
2017-05-06T17:25:02.743Z,3
2017-05-06T17:30:03.016Z,2
2017-05-06T17:35:03.536Z,3
2017-05-06T17:40:03.111Z,3
2017-05-06T17:45:02.689Z,3
2017-05-06T17:50:02.710Z,2
2017-05-06T17:55:03.571Z,4
2017-05-06T18:00:02.600Z,3
2017-05-06T18:05:03.392Z,3
2017-05-06T18:10:03.430Z,2
2017-05-06T18:15:03.410Z,2
2017-05-06T18:20:03.422Z,2
2017-05-06T18:25:02.747Z,3
2017-05-06T18:30:02.770Z,2
2017-05-06T18:35:03.433Z,2
2017-05-06T18:40:03.233Z,3
2017-05-06T18:45:02.915Z,2
2017-05-06T18:50:02.789Z,2
2017-05-06T18:55:03.396Z,0
2017-05-06T19:00:02.737Z,0
2017-05-06T19:05:03.519Z,0
2017-05-06T19:10:03.067Z,0
2017-05-06T19:15:03.302Z,2
2017-05-06T19:20:02.609Z,0
2017-05-06T19:25:03.189Z,0
2017-05-06T19:30:03.466Z,0
2017-05-06T19:35:03.063Z,1
2017-05-06T19:40:03.308Z,0
2017-05-06T19:45:02.755Z,0
2017-05-06T19:50:03.305Z,2
2017-05-06T19:55:03.584Z,0
2017-05-06T20:00:03.215Z,1
2017-05-06T20:05:03.502Z,3
2017-05-06T20:10:03.096Z,0
2017-05-06T20:15:03.043Z,0
2017-05-06T20:20:02.851Z,3
2017-05-06T20:25:03.044Z,2
2017-05-06T20:30:02.832Z,3
2017-05-06T20:35:02.931Z,2
2017-05-06T20:40:03.058Z,2
2017-05-06T20:45:03.001Z,2
2017-05-06T20:50:03.189Z,2
2017-05-06T20:55:03.081Z,2
2017-05-06T21:00:03.223Z,3
2017-05-06T21:05:03.045Z,2
2017-05-06T21:10:03.055Z,2
2017-05-06T21:15:02.852Z,2
2017-05-06T21:20:03.559Z,2
2017-05-06T21:25:03.340Z,3
2017-05-06T21:30:02.922Z,2
2017-05-06T21:35:03.533Z,2
2017-05-06T21:40:03.162Z,3
2017-05-06T21:45:02.733Z,3
2017-05-06T21:50:03.363Z,1
2017-05-06T21:55:02.969Z,2
2017-05-06T22:00:02.733Z,2
2017-05-06T22:05:03.391Z,0
2017-05-06T22:10:03.013Z,0
2017-05-06T22:15:02.786Z,0
2017-05-06T22:20:03.473Z,2
2017-05-06T22:25:03.221Z,3
2017-05-06T22:30:02.801Z,3
2017-05-06T22:35:03.543Z,2
2017-05-06T22:40:03.206Z,2
2017-05-06T22:45:02.894Z,3
2017-05-06T22:50:02.673Z,3
2017-05-06T22:55:03.392Z,2
2017-05-06T23:00:03.020Z,2
2017-05-06T23:05:03.028Z,3
2017-05-06T23:10:02.701Z,4
2017-05-06T23:15:03.492Z,4
2017-05-06T23:20:03.123Z,2
2017-05-06T23:25:02.792Z,3
2017-05-06T23:30:03.437Z,2
2017-05-06T23:35:03.053Z,3
2017-05-06T23:40:02.719Z,2
2017-05-06T23:45:03.330Z,2
2017-05-06T23:50:02.918Z,3
2017-05-06T23:55:02.735Z,3
